sensor_id;sensor_type;location;lat;lon;timestamp;pressure;altitude;pressure_sealevel;temperature;humidity
73674;BME280;61975;48.660;10.164;2023-09-08T00:00:18;95935.19;;;16.55;96.82
73674;BME280;61975;48.660;10.164;2023-09-08T00:02:43;95932.78;;;16.57;95.74
73674;BME280;61975;48.660;10.164;2023-09-08T00:05:09;95926.03;;;16.51;96.50
73674;BME280;61975;48.660;10.164;2023-09-08T00:07:35;95923.25;;;16.48;97.10
73674;BME280;61975;48.660;10.164;2023-09-08T00:10:01;95932.06;;;16.46;97.03
73674;BME280;61975;48.660;10.164;2023-09-08T00:12:26;95927.31;;;16.39;97.42
73674;BME280;61975;48.660;10.164;2023-09-08T00:14:51;95929.34;;;16.35;97.99
73674;BME280;61975;48.660;10.164;2023-09-08T00:17:17;95922.97;;;16.31;97.32
73674;BME280;61975;48.660;10.164;2023-09-08T00:19:42;95920.59;;;16.26;97.11
73674;BME280;61975;48.660;10.164;2023-09-08T00:22:07;95921.47;;;16.20;97.80
73674;BME280;61975;48.660;10.164;2023-09-08T00:24:33;95923.09;;;16.17;98.38
73674;BME280;61975;48.660;10.164;2023-09-08T00:26:59;95915.88;;;16.16;98.66
73674;BME280;61975;48.660;10.164;2023-09-08T00:29:24;95918.31;;;16.14;98.71
73674;BME280;61975;48.660;10.164;2023-09-08T00:31:49;95915.13;;;16.12;99.40
73674;BME280;61975;48.660;10.164;2023-09-08T00:34:15;95910.34;;;16.09;99.74
73674;BME280;61975;48.660;10.164;2023-09-08T00:36:40;95917.97;;;16.09;99.43
73674;BME280;61975;48.660;10.164;2023-09-08T00:39:05;95917.16;;;16.08;99.09
73674;BME280;61975;48.660;10.164;2023-09-08T00:41:31;95921.19;;;16.07;98.36
73674;BME280;61975;48.660;10.164;2023-09-08T00:43:56;95908.81;;;16.05;98.00
73674;BME280;61975;48.660;10.164;2023-09-08T00:46:22;95924.00;;;16.04;97.77
73674;BME280;61975;48.660;10.164;2023-09-08T00:48:47;95924.78;;;16.04;97.12
73674;BME280;61975;48.660;10.164;2023-09-08T00:51:13;95920.00;;;16.01;97.15
73674;BME280;61975;48.660;10.164;2023-09-08T00:53:38;95925.25;;;15.96;98.66
73674;BME280;61975;48.660;10.164;2023-09-08T00:56:04;95922.47;;;15.96;98.70
73674;BME280;61975;48.660;10.164;2023-09-08T00:58:29;95916.50;;;15.90;100.00
73674;BME280;61975;48.660;10.164;2023-09-08T01:00:55;95928.91;;;15.89;99.75
73674;BME280;61975;48.660;10.164;2023-09-08T01:03:24;95925.31;;;15.89;98.64
73674;BME280;61975;48.660;10.164;2023-09-08T01:05:50;95920.94;;;15.88;98.23
73674;BME280;61975;48.660;10.164;2023-09-08T01:08:16;95916.16;;;15.85;98.46
73674;BME280;61975;48.660;10.164;2023-09-08T01:10:42;95920.16;;;15.84;98.65
73674;BME280;61975;48.660;10.164;2023-09-08T01:13:08;95915.38;;;15.81;99.26
73674;BME280;61975;48.660;10.164;2023-09-08T01:15:33;95927.38;;;15.78;99.72
73674;BME280;61975;48.660;10.164;2023-09-08T01:17:58;95919.41;;;15.76;100.00
73674;BME280;61975;48.660;10.164;2023-09-08T01:20:29;95920.22;;;15.73;100.00
73674;BME280;61975;48.660;10.164;2023-09-08T01:23:11;95924.22;;;15.72;100.00
73674;BME280;61975;48.660;10.164;2023-09-08T01:25:44;95924.63;;;15.67;100.00
73674;BME280;61975;48.660;10.164;2023-09-08T01:28:12;95922.69;;;15.61;100.00
73674;BME280;61975;48.660;10.164;2023-09-08T01:30:38;95919.09;;;15.60;100.00
73674;BME280;61975;48.660;10.164;2023-09-08T01:33:04;95916.28;;;15.60;100.00
73674;BME280;61975;48.660;10.164;2023-09-08T01:35:30;95910.31;;;15.58;100.00
73674;BME280;61975;48.660;10.164;2023-09-08T01:37:55;95915.91;;;15.58;100.00
73674;BME280;61975;48.660;10.164;2023-09-08T01:40:21;95911.50;;;15.57;100.00
73674;BME280;61975;48.660;10.164;2023-09-08T01:42:47;95895.53;;;15.54;100.00
73674;BME280;61975;48.660;10.164;2023-09-08T01:45:13;95905.19;;;15.50;100.00
73674;BME280;61975;48.660;10.164;2023-09-08T01:47:38;95898.78;;;15.49;100.00
73674;BME280;61975;48.660;10.164;2023-09-08T01:50:04;95902.38;;;15.46;100.00
73674;BME280;61975;48.660;10.164;2023-09-08T01:52:29;95898.81;;;15.46;100.00
73674;BME280;61975;48.660;10.164;2023-09-08T01:54:55;95896.06;;;15.28;100.00
73674;BME280;61975;48.660;10.164;2023-09-08T01:57:20;95896.84;;;15.32;100.00
73674;BME280;61975;48.660;10.164;2023-09-08T01:59:45;95898.44;;;15.30;100.00
73674;BME280;61975;48.660;10.164;2023-09-08T02:02:11;95901.25;;;15.26;100.00
73674;BME280;61975;48.660;10.164;2023-09-08T02:04:37;95903.28;;;15.22;100.00
73674;BME280;61975;48.660;10.164;2023-09-08T02:07:02;95900.09;;;15.20;100.00
73674;BME280;61975;48.660;10.164;2023-09-08T02:09:33;95905.31;;;15.11;100.00
73674;BME280;61975;48.660;10.164;2023-09-08T02:11:59;95901.31;;;15.12;100.00
73674;BME280;61975;48.660;10.164;2023-09-08T02:14:24;95898.97;;;15.07;100.00
73674;BME280;61975;48.660;10.164;2023-09-08T02:16:50;95900.13;;;15.10;100.00
73674;BME280;61975;48.660;10.164;2023-09-08T02:19:15;95898.16;;;15.10;100.00
73674;BME280;61975;48.660;10.164;2023-09-08T02:21:40;95900.53;;;15.08;100.00
73674;BME280;61975;48.660;10.164;2023-09-08T02:24:06;95904.56;;;15.07;100.00
73674;BME280;61975;48.660;10.164;2023-09-08T02:26:31;95901.34;;;15.05;100.00
73674;BME280;61975;48.660;10.164;2023-09-08T02:28:59;95904.56;;;15.07;100.00
73674;BME280;61975;48.660;10.164;2023-09-08T02:31:24;95907.75;;;15.06;100.00
73674;BME280;61975;48.660;10.164;2023-09-08T02:33:49;95905.34;;;15.04;100.00
73674;BME280;61975;48.660;10.164;2023-09-08T02:36:15;95907.75;;;15.02;100.00
73674;BME280;61975;48.660;10.164;2023-09-08T02:38:40;95899.78;;;15.01;100.00
73674;BME280;61975;48.660;10.164;2023-09-08T02:41:05;95904.59;;;15.00;100.00
73674;BME280;61975;48.660;10.164;2023-09-08T02:43:31;95908.59;;;14.99;100.00
73674;BME280;61975;48.660;10.164;2023-09-08T02:45:56;95909.38;;;14.96;100.00
73674;BME280;61975;48.660;10.164;2023-09-08T02:48:22;95905.78;;;14.96;100.00
73674;BME280;61975;48.660;10.164;2023-09-08T02:50:47;95907.00;;;14.95;100.00
73674;BME280;61975;48.660;10.164;2023-09-08T02:53:12;95899.78;;;14.94;100.00
73674;BME280;61975;48.660;10.164;2023-09-08T02:55:38;95904.19;;;14.91;100.00
73674;BME280;61975;48.660;10.164;2023-09-08T02:58:03;95906.22;;;14.91;100.00
73674;BME280;61975;48.660;10.164;2023-09-08T03:00:29;95905.00;;;14.88;100.00
73674;BME280;61975;48.660;10.164;2023-09-08T03:02:54;95912.63;;;14.88;100.00
73674;BME280;61975;48.660;10.164;2023-09-08T03:05:20;95911.84;;;14.84;100.00
73674;BME280;61975;48.660;10.164;2023-09-08T03:07:48;95916.22;;;14.81;100.00
73674;BME280;61975;48.660;10.164;2023-09-08T03:10:13;95914.63;;;14.80;100.00
73674;BME280;61975;48.660;10.164;2023-09-08T03:12:39;95912.63;;;14.77;100.00
73674;BME280;61975;48.660;10.164;2023-09-08T03:15:05;95909.84;;;14.77;100.00
73674;BME280;61975;48.660;10.164;2023-09-08T03:17:30;95903.88;;;14.75;100.00
73674;BME280;61975;48.660;10.164;2023-09-08T03:19:56;95906.25;;;14.73;100.00
73674;BME280;61975;48.660;10.164;2023-09-08T03:22:21;95899.09;;;14.72;100.00
73674;BME280;61975;48.660;10.164;2023-09-08T03:24:47;95896.69;;;14.71;100.00
73674;BME280;61975;48.660;10.164;2023-09-08T03:27:12;95895.88;;;14.70;100.00
73674;BME280;61975;48.660;10.164;2023-09-08T03:29:37;95894.69;;;14.64;100.00
73674;BME280;61975;48.660;10.164;2023-09-08T03:32:03;95895.91;;;14.67;100.00
73674;BME280;61975;48.660;10.164;2023-09-08T03:34:28;95891.91;;;14.64;100.00
73674;BME280;61975;48.660;10.164;2023-09-08T03:36:54;95901.50;;;14.63;100.00
73674;BME280;61975;48.660;10.164;2023-09-08T03:39:19;95897.13;;;14.62;100.00
73674;BME280;61975;48.660;10.164;2023-09-08T03:41:45;95894.31;;;14.59;100.00
73674;BME280;61975;48.660;10.164;2023-09-08T03:44:11;95893.94;;;14.57;100.00
73674;BME280;61975;48.660;10.164;2023-09-08T03:46:36;95895.94;;;14.56;100.00
73674;BME280;61975;48.660;10.164;2023-09-08T03:49:02;95901.50;;;14.56;100.00
73674;BME280;61975;48.660;10.164;2023-09-08T03:51:28;95895.53;;;14.54;100.00
73674;BME280;61975;48.660;10.164;2023-09-08T03:53:53;95897.53;;;14.54;100.00
73674;BME280;61975;48.660;10.164;2023-09-08T03:56:19;95895.13;;;14.52;100.00
73674;BME280;61975;48.660;10.164;2023-09-08T03:58:45;95893.53;;;14.55;100.00
73674;BME280;61975;48.660;10.164;2023-09-08T04:01:11;95901.13;;;14.54;100.00
73674;BME280;61975;48.660;10.164;2023-09-08T04:03:36;95894.75;;;14.54;100.00
73674;BME280;61975;48.660;10.164;2023-09-08T04:06:02;95897.13;;;14.52;100.00
73674;BME280;61975;48.660;10.164;2023-09-08T04:08:27;95899.91;;;14.52;100.00
73674;BME280;61975;48.660;10.164;2023-09-08T04:10:52;95901.53;;;14.49;100.00
73674;BME280;61975;48.660;10.164;2023-09-08T04:13:24;95898.72;;;14.49;100.00
73674;BME280;61975;48.660;10.164;2023-09-08T04:15:52;95900.72;;;14.49;100.00
73674;BME280;61975;48.660;10.164;2023-09-08T04:18:18;95913.50;;;14.46;100.00
73674;BME280;61975;48.660;10.164;2023-09-08T04:20:43;95910.31;;;14.44;100.00
73674;BME280;61975;48.660;10.164;2023-09-08T04:23:08;95906.72;;;14.44;100.00
73674;BME280;61975;48.660;10.164;2023-09-08T04:25:34;95904.34;;;14.42;100.00
73674;BME280;61975;48.660;10.164;2023-09-08T04:27:59;95913.13;;;14.41;100.00
73674;BME280;61975;48.660;10.164;2023-09-08T04:30:25;95901.56;;;14.39;100.00
73674;BME280;61975;48.660;10.164;2023-09-08T04:32:50;95911.94;;;14.38;100.00
73674;BME280;61975;48.660;10.164;2023-09-08T04:35:15;95914.31;;;14.36;100.00
73674;BME280;61975;48.660;10.164;2023-09-08T04:37:41;95915.13;;;14.33;100.00
73674;BME280;61975;48.660;10.164;2023-09-08T04:40:06;95916.72;;;14.27;100.00
73674;BME280;61975;48.660;10.164;2023-09-08T04:42:32;95919.50;;;14.24;100.00
73674;BME280;61975;48.660;10.164;2023-09-08T04:44:58;95918.72;;;14.23;100.00
73674;BME280;61975;48.660;10.164;2023-09-08T04:47:23;95924.31;;;14.23;100.00
73674;BME280;61975;48.660;10.164;2023-09-08T04:49:49;95919.91;;;14.22;100.00
73674;BME280;61975;48.660;10.164;2023-09-08T04:52:14;95919.09;;;14.22;100.00
73674;BME280;61975;48.660;10.164;2023-09-08T04:54:40;95917.47;;;14.21;100.00
73674;BME280;61975;48.660;10.164;2023-09-08T04:57:05;95920.66;;;14.19;100.00
73674;BME280;61975;48.660;10.164;2023-09-08T04:59:31;95926.25;;;14.19;100.00
73674;BME280;61975;48.660;10.164;2023-09-08T05:01:57;95918.31;;;14.18;100.00
73674;BME280;61975;48.660;10.164;2023-09-08T05:04:23;95921.47;;;14.13;100.00
73674;BME280;61975;48.660;10.164;2023-09-08T05:06:48;95921.47;;;14.13;100.00
73674;BME280;61975;48.660;10.164;2023-09-08T05:09:15;95916.28;;;14.11;100.00
73674;BME280;61975;48.660;10.164;2023-09-08T05:11:40;95920.28;;;14.10;100.00
73674;BME280;61975;48.660;10.164;2023-09-08T05:14:06;95915.50;;;14.07;100.00
73674;BME280;61975;48.660;10.164;2023-09-08T05:16:31;95913.50;;;14.04;100.00
73674;BME280;61975;48.660;10.164;2023-09-08T05:19:10;95922.28;;;14.06;99.49
73674;BME280;61975;48.660;10.164;2023-09-08T05:21:36;95926.25;;;14.05;97.47
73674;BME280;61975;48.660;10.164;2023-09-08T05:24:02;95927.88;;;14.06;96.78
73674;BME280;61975;48.660;10.164;2023-09-08T05:26:28;95923.09;;;14.03;97.64
73674;BME280;61975;48.660;10.164;2023-09-08T05:28:53;95925.47;;;14.05;99.38
73674;BME280;61975;48.660;10.164;2023-09-08T05:31:18;95922.28;;;14.06;99.98
73674;BME280;61975;48.660;10.164;2023-09-08T05:33:44;95931.84;;;14.09;100.00
73674;BME280;61975;48.660;10.164;2023-09-08T05:36:09;95928.66;;;14.10;100.00
73674;BME280;61975;48.660;10.164;2023-09-08T05:38:34;95927.06;;;14.13;100.00
73674;BME280;61975;48.660;10.164;2023-09-08T05:41:00;95933.84;;;14.12;100.00
73674;BME280;61975;48.660;10.164;2023-09-08T05:43:25;95937.03;;;14.14;100.00
73674;BME280;61975;48.660;10.164;2023-09-08T05:45:51;95939.44;;;14.15;100.00
73674;BME280;61975;48.660;10.164;2023-09-08T05:48:16;95939.44;;;14.15;100.00
73674;BME280;61975;48.660;10.164;2023-09-08T05:50:42;95943.84;;;14.16;100.00
73674;BME280;61975;48.660;10.164;2023-09-08T05:53:07;95954.19;;;14.19;100.00
73674;BME280;61975;48.660;10.164;2023-09-08T05:55:33;95943.06;;;14.23;100.00
73674;BME280;61975;48.660;10.164;2023-09-08T05:57:58;95947.03;;;14.25;100.00
73674;BME280;61975;48.660;10.164;2023-09-08T06:00:23;95945.44;;;14.28;100.00
73674;BME280;61975;48.660;10.164;2023-09-08T06:02:49;95947.03;;;14.32;100.00
73674;BME280;61975;48.660;10.164;2023-09-08T06:05:14;95951.81;;;14.35;100.00
73674;BME280;61975;48.660;10.164;2023-09-08T06:07:40;95953.81;;;14.38;100.00
73674;BME280;61975;48.660;10.164;2023-09-08T06:10:05;95956.59;;;14.42;100.00
73674;BME280;61975;48.660;10.164;2023-09-08T06:12:31;95948.22;;;14.45;100.00
73674;BME280;61975;48.660;10.164;2023-09-08T06:14:56;95952.22;;;14.48;100.00
73674;BME280;61975;48.660;10.164;2023-09-08T06:17:21;95949.81;;;14.50;100.00
73674;BME280;61975;48.660;10.164;2023-09-08T06:19:47;95955.81;;;14.55;100.00
73674;BME280;61975;48.660;10.164;2023-09-08T06:22:12;95949.78;;;14.60;100.00
73674;BME280;61975;48.660;10.164;2023-09-08T06:24:38;95956.16;;;14.64;100.00
73674;BME280;61975;48.660;10.164;2023-09-08T06:27:03;95946.19;;;14.70;100.00
73674;BME280;61975;48.660;10.164;2023-09-08T06:29:28;95946.56;;;14.76;100.00
73674;BME280;61975;48.660;10.164;2023-09-08T06:31:54;95948.16;;;14.80;100.00
73674;BME280;61975;48.660;10.164;2023-09-08T06:34:19;95947.78;;;14.85;100.00
73674;BME280;61975;48.660;10.164;2023-09-08T06:36:47;95941.34;;;14.92;100.00
73674;BME280;61975;48.660;10.164;2023-09-08T06:39:12;95939.75;;;14.98;100.00
73674;BME280;61975;48.660;10.164;2023-09-08T06:41:38;95942.50;;;15.05;100.00
73674;BME280;61975;48.660;10.164;2023-09-08T06:44:03;95945.69;;;15.10;100.00
73674;BME280;61975;48.660;10.164;2023-09-08T06:46:29;95937.28;;;15.17;100.00
73674;BME280;61975;48.660;10.164;2023-09-08T06:48:55;95944.03;;;15.23;100.00
73674;BME280;61975;48.660;10.164;2023-09-08T06:51:20;95941.22;;;15.30;100.00
73674;BME280;61975;48.660;10.164;2023-09-08T06:53:54;95946.41;;;15.39;100.00
73674;BME280;61975;48.660;10.164;2023-09-08T06:56:20;95937.97;;;15.46;100.00
73674;BME280;61975;48.660;10.164;2023-09-08T06:58:46;95941.91;;;15.52;100.00
73674;BME280;61975;48.660;10.164;2023-09-08T07:01:11;95942.69;;;15.59;100.00
73674;BME280;61975;48.660;10.164;2023-09-08T07:03:36;95944.22;;;15.67;100.00
73674;BME280;61975;48.660;10.164;2023-09-08T07:06:02;95947.38;;;15.76;100.00
73674;BME280;61975;48.660;10.164;2023-09-08T07:08:27;95947.34;;;15.83;100.00
73674;BME280;61975;48.660;10.164;2023-09-08T07:10:53;95942.50;;;15.91;100.00
73674;BME280;61975;48.660;10.164;2023-09-08T07:13:19;95943.63;;;16.00;100.00
73674;BME280;61975;48.660;10.164;2023-09-08T07:15:44;95951.94;;;16.11;100.00
73674;BME280;61975;48.660;10.164;2023-09-08T07:18:09;95948.69;;;16.19;100.00
73674;BME280;61975;48.660;10.164;2023-09-08T07:20:35;95947.78;;;16.29;100.00
73674;BME280;61975;48.660;10.164;2023-09-08T07:23:00;95952.53;;;16.39;100.00
73674;BME280;61975;48.660;10.164;2023-09-08T07:25:26;95950.84;;;16.49;100.00
73674;BME280;61975;48.660;10.164;2023-09-08T07:27:51;95947.16;;;16.59;100.00
73674;BME280;61975;48.660;10.164;2023-09-08T07:30:19;95947.50;;;16.68;99.43
73674;BME280;61975;48.660;10.164;2023-09-08T07:32:44;95947.38;;;16.79;98.23
73674;BME280;61975;48.660;10.164;2023-09-08T07:35:09;95949.28;;;16.89;98.22
73674;BME280;61975;48.660;10.164;2023-09-08T07:37:39;95941.53;;;17.00;97.72
73674;BME280;61975;48.660;10.164;2023-09-08T07:40:06;95942.25;;;17.11;97.40
73674;BME280;61975;48.660;10.164;2023-09-08T07:42:31;95941.28;;;17.21;95.60
73674;BME280;61975;48.660;10.164;2023-09-08T07:44:57;95934.75;;;17.31;95.06
73674;BME280;61975;48.660;10.164;2023-09-08T07:47:22;95940.69;;;17.40;95.21
73674;BME280;61975;48.660;10.164;2023-09-08T07:49:48;95945.41;;;17.50;94.63
73674;BME280;61975;48.660;10.164;2023-09-08T07:52:13;95945.31;;;17.57;93.13
73674;BME280;61975;48.660;10.164;2023-09-08T07:54:38;95943.97;;;17.65;93.07
73674;BME280;61975;48.660;10.164;2023-09-08T07:57:04;95949.47;;;17.75;92.31
73674;BME280;61975;48.660;10.164;2023-09-08T07:59:29;95940.97;;;17.79;92.62
73674;BME280;61975;48.660;10.164;2023-09-08T08:01:55;95939.63;;;17.90;92.16
73674;BME280;61975;48.660;10.164;2023-09-08T08:04:20;95942.31;;;17.97;90.83
73674;BME280;61975;48.660;10.164;2023-09-08T08:06:45;95937.31;;;18.08;90.70
73674;BME280;61975;48.660;10.164;2023-09-08T08:09:12;95940.00;;;18.19;91.60
73674;BME280;61975;48.660;10.164;2023-09-08T08:11:38;95944.75;;;18.22;94.93
73674;BME280;61975;48.660;10.164;2023-09-08T08:14:03;95934.59;;;18.28;92.20
73674;BME280;61975;48.660;10.164;2023-09-08T08:16:28;95935.63;;;18.41;91.86
73674;BME280;61975;48.660;10.164;2023-09-08T08:18:54;95934.66;;;18.51;91.55
73674;BME280;61975;48.660;10.164;2023-09-08T08:21:19;95932.47;;;18.62;91.45
73674;BME280;61975;48.660;10.164;2023-09-08T08:23:44;95924.72;;;18.69;90.59
73674;BME280;61975;48.660;10.164;2023-09-08T08:26:10;95937.41;;;18.77;88.34
73674;BME280;61975;48.660;10.164;2023-09-08T08:28:35;95932.09;;;18.83;87.11
73674;BME280;61975;48.660;10.164;2023-09-08T08:31:01;95927.50;;;18.92;85.82
73674;BME280;61975;48.660;10.164;2023-09-08T08:33:26;95933.84;;;18.96;85.03
73674;BME280;61975;48.660;10.164;2023-09-08T08:35:53;95931.81;;;18.97;82.77
73674;BME280;61975;48.660;10.164;2023-09-08T08:38:19;95929.63;;;19.08;81.79
73674;BME280;61975;48.660;10.164;2023-09-08T08:40:44;95934.34;;;19.11;80.90
73674;BME280;61975;48.660;10.164;2023-09-08T08:43:10;95923.34;;;19.20;80.92
73674;BME280;61975;48.660;10.164;2023-09-08T08:45:37;95920.41;;;19.27;81.67
73674;BME280;61975;48.660;10.164;2023-09-08T08:48:04;95922.78;;;19.29;79.78
73674;BME280;61975;48.660;10.164;2023-09-08T08:50:29;95929.00;;;19.40;80.31
73674;BME280;61975;48.660;10.164;2023-09-08T08:52:55;95927.56;;;19.51;80.37
73674;BME280;61975;48.660;10.164;2023-09-08T08:55:22;95930.59;;;19.60;78.92
73674;BME280;61975;48.660;10.164;2023-09-08T08:57:48;95930.00;;;19.69;79.03
73674;BME280;61975;48.660;10.164;2023-09-08T09:00:15;95928.34;;;19.71;77.73
73674;BME280;61975;48.660;10.164;2023-09-08T09:02:43;95932.16;;;19.81;77.25
73674;BME280;61975;48.660;10.164;2023-09-08T09:05:13;95929.59;;;19.86;76.85
73674;BME280;61975;48.660;10.164;2023-09-08T09:07:40;95933.56;;;19.89;77.38
73674;BME280;61975;48.660;10.164;2023-09-08T09:10:07;95928.56;;;19.96;77.20
73674;BME280;61975;48.660;10.164;2023-09-08T09:12:33;95925.59;;;20.03;76.22
73674;BME280;61975;48.660;10.164;2023-09-08T09:14:59;95929.84;;;20.11;75.26
73674;BME280;61975;48.660;10.164;2023-09-08T09:17:25;95920.53;;;20.14;73.76
73674;BME280;61975;48.660;10.164;2023-09-08T09:20:17;95919.75;;;20.14;75.34
73674;BME280;61975;48.660;10.164;2023-09-08T09:22:45;95922.69;;;20.26;75.00
73674;BME280;61975;48.660;10.164;2023-09-08T09:25:30;95923.63;;;20.36;75.13
73674;BME280;61975;48.660;10.164;2023-09-08T09:27:58;95928.22;;;20.46;75.33
73674;BME280;61975;48.660;10.164;2023-09-08T09:30:24;95920.03;;;20.51;75.06
73674;BME280;61975;48.660;10.164;2023-09-08T09:33:03;95924.63;;;20.61;73.28
73674;BME280;61975;48.660;10.164;2023-09-08T09:35:49;95923.75;;;20.64;72.74
73674;BME280;61975;48.660;10.164;2023-09-08T09:38:15;95918.78;;;20.68;72.08
73674;BME280;61975;48.660;10.164;2023-09-08T09:40:44;95920.19;;;20.76;73.04
73674;BME280;61975;48.660;10.164;2023-09-08T09:43:10;95919.84;;;20.74;70.78
73674;BME280;61975;48.660;10.164;2023-09-08T09:45:37;95916.75;;;20.85;71.16
73674;BME280;61975;48.660;10.164;2023-09-08T09:48:03;95918.69;;;20.88;70.58
73674;BME280;61975;48.660;10.164;2023-09-08T09:53:01;95927.59;;;21.02;71.64
73674;BME280;61975;48.660;10.164;2023-09-08T09:55:27;95921.75;;;21.09;71.44
73674;BME280;61975;48.660;10.164;2023-09-08T09:57:57;95928.88;;;21.14;69.15
73674;BME280;61975;48.660;10.164;2023-09-08T10:00:26;95929.59;;;21.18;68.92
73674;BME280;61975;48.660;10.164;2023-09-08T10:02:53;95926.47;;;21.28;68.83
73674;BME280;61975;48.660;10.164;2023-09-08T10:05:18;95925.00;;;21.36;69.54
73674;BME280;61975;48.660;10.164;2023-09-08T10:07:47;95923.69;;;21.41;69.44
73674;BME280;61975;48.660;10.164;2023-09-08T10:10:13;95926.41;;;21.44;68.04
73674;BME280;61975;48.660;10.164;2023-09-08T10:12:41;95923.03;;;21.49;68.25
73674;BME280;61975;48.660;10.164;2023-09-08T10:15:10;95915.94;;;21.57;68.54
73674;BME280;61975;48.660;10.164;2023-09-08T10:17:36;95917.31;;;21.66;68.85
73674;BME280;61975;48.660;10.164;2023-09-08T10:20:02;95923.56;;;21.73;69.34
73674;BME280;61975;48.660;10.164;2023-09-08T10:22:38;95915.34;;;21.79;68.40
73674;BME280;61975;48.660;10.164;2023-09-08T10:25:05;95908.78;;;21.82;66.01
73674;BME280;61975;48.660;10.164;2023-09-08T10:27:32;95912.31;;;21.86;66.51
73674;BME280;61975;48.660;10.164;2023-09-08T10:30:00;95906.31;;;21.96;68.08
73674;BME280;61975;48.660;10.164;2023-09-08T10:32:26;95900.44;;;22.03;67.81
73674;BME280;61975;48.660;10.164;2023-09-08T10:34:53;95904.31;;;22.09;65.82
73674;BME280;61975;48.660;10.164;2023-09-08T10:39:44;95899.78;;;22.24;66.45
73674;BME280;61975;48.660;10.164;2023-09-08T10:45:02;95902.94;;;22.39;63.76
73674;BME280;61975;48.660;10.164;2023-09-08T10:47:41;95898.31;;;22.45;62.87
73674;BME280;61975;48.660;10.164;2023-09-08T10:50:22;95889.25;;;22.50;63.00
73674;BME280;61975;48.660;10.164;2023-09-08T10:53:18;95898.31;;;22.57;63.37
73674;BME280;61975;48.660;10.164;2023-09-08T10:55:48;95885.97;;;22.64;62.92
73674;BME280;61975;48.660;10.164;2023-09-08T10:58:36;95884.47;;;22.72;62.95
73674;BME280;61975;48.660;10.164;2023-09-08T11:01:04;95885.03;;;22.79;62.80
73674;BME280;61975;48.660;10.164;2023-09-08T11:06:11;95884.66;;;22.90;62.63
73674;BME280;61975;48.660;10.164;2023-09-08T11:08:42;95889.72;;;22.95;62.37
73674;BME280;61975;48.660;10.164;2023-09-08T11:11:10;95885.84;;;23.01;62.86
73674;BME280;61975;48.660;10.164;2023-09-08T11:13:36;95887.31;;;23.06;63.29
73674;BME280;61975;48.660;10.164;2023-09-08T11:16:02;95891.16;;;23.12;63.44
73674;BME280;61975;48.660;10.164;2023-09-08T11:18:32;95891.69;;;23.19;63.79
73674;BME280;61975;48.660;10.164;2023-09-08T11:21:00;95882.63;;;23.24;63.20
73674;BME280;61975;48.660;10.164;2023-09-08T11:23:27;95894.16;;;23.30;63.27
73674;BME280;61975;48.660;10.164;2023-09-08T11:25:53;95888.69;;;23.35;63.37
73674;BME280;61975;48.660;10.164;2023-09-08T11:28:21;95890.94;;;23.40;62.50
73674;BME280;61975;48.660;10.164;2023-09-08T11:30:47;95892.41;;;23.45;61.76
73674;BME280;61975;48.660;10.164;2023-09-08T11:33:21;95889.78;;;23.50;61.40
73674;BME280;61975;48.660;10.164;2023-09-08T11:35:54;95888.84;;;23.53;61.43
73674;BME280;61975;48.660;10.164;2023-09-08T11:38:26;95880.66;;;23.55;60.97
73674;BME280;61975;48.660;10.164;2023-09-08T11:40:53;95877.25;;;23.60;61.72
73674;BME280;61975;48.660;10.164;2023-09-08T11:43:20;95883.88;;;23.66;61.14
73674;BME280;61975;48.660;10.164;2023-09-08T11:45:46;95876.72;;;23.74;61.26
73674;BME280;61975;48.660;10.164;2023-09-08T11:48:14;95871.06;;;23.83;60.91
73674;BME280;61975;48.660;10.164;2023-09-08T11:50:41;95873.16;;;23.92;61.69
73674;BME280;61975;48.660;10.164;2023-09-08T11:53:06;95870.88;;;23.99;61.84
73674;BME280;61975;48.660;10.164;2023-09-08T11:55:32;95866.38;;;24.11;60.70
73674;BME280;61975;48.660;10.164;2023-09-08T11:57:57;95864.03;;;24.19;60.24
73674;BME280;61975;48.660;10.164;2023-09-08T12:00:23;95867.22;;;24.30;60.30
73674;BME280;61975;48.660;10.164;2023-09-08T12:02:51;95871.69;;;24.40;61.51
73674;BME280;61975;48.660;10.164;2023-09-08T12:05:20;95871.25;;;24.50;61.04
73674;BME280;61975;48.660;10.164;2023-09-08T12:07:47;95872.72;;;24.64;59.89
73674;BME280;61975;48.660;10.164;2023-09-08T12:10:13;95875.13;;;24.74;60.02
73674;BME280;61975;48.660;10.164;2023-09-08T12:12:48;95866.00;;;24.88;58.45
73674;BME280;61975;48.660;10.164;2023-09-08T12:15:39;95866.81;;;24.98;57.98
73674;BME280;61975;48.660;10.164;2023-09-08T12:20:32;95862.56;;;25.11;57.58
73674;BME280;61975;48.660;10.164;2023-09-08T12:23:00;95870.44;;;25.16;56.85
73674;BME280;61975;48.660;10.164;2023-09-08T12:25:27;95864.94;;;25.22;58.64
73674;BME280;61975;48.660;10.164;2023-09-08T12:27:53;95862.28;;;25.36;58.74
73674;BME280;61975;48.660;10.164;2023-09-08T12:30:21;95865.75;;;25.49;58.22
73674;BME280;61975;48.660;10.164;2023-09-08T12:32:48;95869.66;;;25.61;57.40
73674;BME280;61975;48.660;10.164;2023-09-08T12:35:20;95861.59;;;25.68;56.48
73674;BME280;61975;48.660;10.164;2023-09-08T12:38:07;95860.31;;;25.78;56.72
73674;BME280;61975;48.660;10.164;2023-09-08T12:40:35;95861.88;;;25.88;56.89
73674;BME280;61975;48.660;10.164;2023-09-08T12:43:01;95857.91;;;26.04;56.17
73674;BME280;61975;48.660;10.164;2023-09-08T12:45:27;95856.16;;;26.15;55.95
73674;BME280;61975;48.660;10.164;2023-09-08T12:47:53;95858.66;;;26.22;55.98
73674;BME280;61975;48.660;10.164;2023-09-08T12:50:20;95847.22;;;26.31;56.29
73674;BME280;61975;48.660;10.164;2023-09-08T12:52:45;95844.63;;;26.42;56.22
73674;BME280;61975;48.660;10.164;2023-09-08T12:55:11;95840.19;;;26.50;55.55